Time;durP1;ratioP1;P1;durP2;ratioP2;P2;SDS_P1;SDS_P2;PMS_P1;PMS_P2;Temp;Humidity;BMP_temperature;BMP_pressure;BME280_temperature;BME280_humidity;BME280_pressure;Samples;Min_cycle;Max_cycle;Signal;HPM_P1;HPM_P2
2022/08/16 00:00:49;;;;;;;1999.90;999.90;;;21.60;99.90;;;;;;5098658;28;20051;-86
2022/08/16 00:03:16;;;;;;;1999.90;952.03;;;21.60;99.90;;;;;;5097828;28;20487;-86
2022/08/16 00:05:43;;;;;;;1999.90;969.83;;;21.60;99.90;;;;;;5115776;28;20483;-86
2022/08/16 00:08:09;;;;;;;1999.90;985.40;;;21.50;99.90;;;;;;5116442;28;20040;-88
2022/08/16 00:10:35;;;;;;;1999.90;965.15;;;21.50;99.90;;;;;;5116056;28;20085;-89
2022/08/16 00:13:05;;;;;;;1947.88;944.95;;;21.50;99.90;;;;;;5115935;28;20040;-89
2022/08/16 00:15:43;;;;;;;1999.90;999.90;;;21.40;99.90;;;;;;5116121;28;20043;-87
2022/08/16 00:18:11;;;;;;;1999.90;999.90;;;21.40;99.90;;;;;;5115879;28;20040;-87
2022/08/16 00:20:39;;;;;;;1999.90;995.55;;;21.40;99.90;;;;;;5097975;28;20510;-87
2022/08/16 00:23:05;;;;;;;1999.90;999.90;;;21.00;99.90;;;;;;5081513;28;20062;-87
2022/08/16 00:25:32;;;;;;;1999.90;994.38;;;21.40;99.90;;;;;;5115731;28;20056;-87
2022/08/16 00:27:58;;;;;;;1999.90;938.72;;;21.40;99.90;;;;;;5080429;28;20144;-87
2022/08/16 00:30:24;;;;;;;1770.50;822.08;;;21.40;99.90;;;;;;5080435;28;20054;-87
2022/08/16 00:32:54;;;;;;;1999.90;983.13;;;21.40;99.90;;;;;;5115148;28;20040;-88
2022/08/16 00:35:24;;;;;;;1998.65;987.65;;;21.40;99.90;;;;;;5097143;28;20043;-88
2022/08/16 00:37:50;;;;;;;1999.90;999.90;;;21.40;99.90;;;;;;5096720;28;20048;-87
2022/08/16 00:40:21;;;;;;;1999.90;933.67;;;21.40;99.90;;;;;;5096411;28;20377;-87
2022/08/16 00:42:47;;;;;;;1935.60;999.90;;;21.30;99.90;;;;;;5115089;28;20058;-87
2022/08/16 00:45:40;;;;;;;1999.90;999.90;;;21.40;99.90;;;;;;5115796;28;20108;-85
2022/08/16 00:48:09;;;;;;;1999.90;999.90;;;21.30;99.90;;;;;;5115711;28;20081;-88
2022/08/16 00:50:38;;;;;;;1999.90;999.90;;;21.30;99.90;;;;;;5096831;28;20078;-87
2022/08/16 00:53:07;;;;;;;1800.90;999.90;;;21.30;99.90;;;;;;5115099;28;20189;-87
2022/08/16 00:55:35;;;;;;;1999.90;999.90;;;21.30;99.90;;;;;;5115126;28;20035;-87
2022/08/16 00:58:01;;;;;;;1510.47;678.97;;;21.20;99.90;;;;;;5114424;28;20052;-87
2022/08/16 01:00:30;;;;;;;1999.90;990.15;;;21.20;99.90;;;;;;5097677;28;20048;-86
2022/08/16 01:02:59;;;;;;;1999.90;999.90;;;21.20;99.90;;;;;;5114762;28;20477;-86
2022/08/16 01:05:26;;;;;;;1490.55;711.05;;;21.10;99.90;;;;;;5115260;28;20097;-87
2022/08/16 01:07:53;;;;;;;1999.90;914.80;;;21.10;99.90;;;;;;5079888;28;20079;-87
2022/08/16 01:10:24;;;;;;;1999.90;996.25;;;21.10;99.90;;;;;;5096300;28;20399;-87
2022/08/16 01:12:50;;;;;;;1999.90;940.90;;;21.10;99.90;;;;;;5096755;28;20047;-86
2022/08/16 01:15:16;;;;;;;1999.90;999.90;;;21.00;99.90;;;;;;5097334;28;20463;-87
2022/08/16 01:17:45;;;;;;;1999.90;846.70;;;21.00;99.90;;;;;;5115155;28;20427;-87
2022/08/16 01:20:13;;;;;;;1999.90;974.95;;;21.00;99.90;;;;;;5114893;28;20075;-87
2022/08/16 01:23:02;;;;;;;1802.00;796.28;;;21.00;99.90;;;;;;5114795;28;20043;-87
2022/08/16 01:25:32;;;;;;;1655.18;743.47;;;21.00;99.90;;;;;;5114974;28;20051;-87
2022/08/16 01:28:01;;;;;;;1898.10;750.47;;;21.00;99.90;;;;;;5096620;28;20044;-87
2022/08/16 01:30:31;;;;;;;1999.90;999.90;;;20.90;99.90;;;;;;5114388;28;20040;-87
2022/08/16 01:33:00;;;;;;;1999.90;999.90;;;20.90;99.90;;;;;;5094850;28;20044;-86
2022/08/16 01:35:28;;;;;;;1999.90;999.90;;;20.90;99.90;;;;;;5078139;28;20054;-85
2022/08/16 01:37:56;;;;;;;1999.90;999.90;;;20.80;99.90;;;;;;5112675;28;20040;-85
2022/08/16 01:40:26;;;;;;;1999.90;856.50;;;20.80;99.90;;;;;;5112598;28;20074;-87
2022/08/16 01:42:53;;;;;;;1999.90;999.90;;;20.80;99.90;;;;;;5112621;28;20082;-85
2022/08/16 01:45:19;;;;;;;1999.90;999.90;;;20.80;99.90;;;;;;5114415;28;20051;-87
2022/08/16 01:47:47;;;;;;;1999.90;999.90;;;20.80;99.90;;;;;;5096579;28;20064;-87
2022/08/16 01:50:13;;;;;;;1999.90;999.90;;;20.80;99.90;;;;;;5095478;28;20056;-87
2022/08/16 01:52:41;;;;;;;1999.90;838.78;;;20.70;99.90;;;;;;5114137;28;20369;-87
2022/08/16 01:55:08;;;;;;;1999.90;999.83;;;20.70;99.90;;;;;;5095718;28;20075;-87
2022/08/16 01:57:34;;;;;;;1951.45;637.95;;;20.60;99.90;;;;;;5095676;28;20050;-87
2022/08/16 02:00:00;;;;;;;1999.90;999.90;;;20.60;99.90;;;;;;5113392;28;20372;-87
2022/08/16 02:02:27;;;;;;;1999.90;999.90;;;20.60;99.90;;;;;;5113726;28;20058;-85
2022/08/16 02:04:53;;;;;;;1999.90;998.50;;;20.50;99.90;;;;;;5113217;28;20039;-86
2022/08/16 02:07:19;;;;;;;1999.90;999.90;;;20.50;99.90;;;;;;5095751;28;20062;-87
2022/08/16 02:09:47;;;;;;;1999.90;929.53;;;20.50;99.90;;;;;;5113259;28;20101;-86
2022/08/16 02:12:15;;;;;;;1999.90;999.90;;;20.50;99.90;;;;;;5112932;28;20229;-87
2022/08/16 02:14:41;;;;;;;1999.90;999.90;;;20.50;99.90;;;;;;5113608;28;20444;-88
2022/08/16 02:17:10;;;;;;;1999.90;999.90;;;20.50;99.90;;;;;;5095387;28;20039;-87
2022/08/16 02:19:40;;;;;;;1999.90;999.90;;;20.50;99.90;;;;;;5113432;28;20472;-88
2022/08/16 02:22:10;;;;;;;1999.90;999.90;;;20.50;99.90;;;;;;5113304;28;20044;-88
2022/08/16 02:24:38;;;;;;;1999.90;999.90;;;20.50;99.90;;;;;;5112857;28;20039;-87
2022/08/16 02:27:04;;;;;;;1999.90;999.90;;;20.50;99.90;;;;;;5094815;28;20097;-88
2022/08/16 02:29:30;;;;;;;1999.90;999.90;;;20.60;99.90;;;;;;5113287;28;20492;-88
2022/08/16 02:31:55;;;;;;;1999.90;999.90;;;20.60;99.90;;;;;;5095059;28;20418;-87
2022/08/16 02:34:21;;;;;;;1999.90;999.90;;;20.60;99.90;;;;;;5113402;28;20122;-87
2022/08/16 02:36:47;;;;;;;1999.90;967.53;;;20.60;99.90;;;;;;5095363;28;20096;-87
2022/08/16 02:39:14;;;;;;;1988.60;999.90;;;20.60;99.90;;;;;;5113207;28;20039;-88
2022/08/16 02:41:43;;;;;;;1999.90;999.90;;;20.70;99.90;;;;;;5094965;28;20047;-88
2022/08/16 02:44:11;;;;;;;1999.90;837.83;;;20.70;99.90;;;;;;5094754;28;20053;-87
2022/08/16 02:46:38;;;;;;;1999.90;923.50;;;20.70;99.90;;;;;;5113262;28;20100;-87
2022/08/16 02:49:07;;;;;;;1999.90;999.90;;;20.60;99.90;;;;;;5112578;28;20134;-87
2022/08/16 02:51:33;;;;;;;1999.90;999.90;;;20.70;99.90;;;;;;5078167;28;20467;-86
2022/08/16 02:53:59;;;;;;;1999.90;999.90;;;20.70;99.90;;;;;;5094742;28;20493;-88
2022/08/16 02:56:25;;;;;;;1999.90;999.90;;;20.60;99.90;;;;;;5112222;28;20122;-87
2022/08/16 02:58:51;;;;;;;1999.90;999.90;;;20.60;99.90;;;;;;5112526;28;20040;-87
2022/08/16 03:01:24;;;;;;;1999.90;999.90;;;20.50;99.90;;;;;;5112898;28;20147;-87
2022/08/16 03:03:50;;;;;;;1999.90;937.45;;;20.50;99.90;;;;;;5113182;28;20475;-87
2022/08/16 03:06:19;;;;;;;1999.90;999.90;;;20.40;99.90;;;;;;5094385;28;20048;-85
2022/08/16 03:08:46;;;;;;;1999.90;807.13;;;20.40;1.00;;;;;;5112098;28;20040;-86
2022/08/16 03:11:12;;;;;;;1999.90;999.90;;;20.30;1.00;;;;;;5111779;28;20082;-86
2022/08/16 03:13:38;;;;;;;1999.90;999.90;;;20.20;1.00;;;;;;5111969;28;20078;-86
2022/08/16 03:16:05;;;;;;;1826.85;999.90;;;20.60;1.00;;;;;;5112328;28;20044;-86
2022/08/16 03:18:31;;;;;;;1999.90;999.90;;;20.10;99.90;;;;;;5094803;28;20050;-86
2022/08/16 03:20:58;;;;;;;1999.90;999.90;;;20.00;1.00;;;;;;5112514;28;20075;-87
2022/08/16 03:23:24;;;;;;;1999.90;999.90;;;20.00;1.00;;;;;;5112715;28;20048;-87
2022/08/16 03:25:50;;;;;;;1999.90;999.90;;;19.90;1.00;;;;;;5112894;28;20044;-86
2022/08/16 03:28:16;;;;;;;1842.38;999.90;;;19.90;1.00;;;;;;5111086;28;20116;-86
2022/08/16 03:30:42;;;;;;;1999.90;999.90;;;19.90;1.00;;;;;;5094404;28;20040;-86
2022/08/16 03:33:08;;;;;;;1999.90;999.90;;;19.80;1.00;;;;;;5112476;28;20123;-86
2022/08/16 03:35:35;;;;;;;1999.90;999.90;;;19.80;1.00;;;;;;5094468;28;20387;-87
2022/08/16 03:38:05;;;;;;;1999.90;999.90;;;19.80;1.00;;;;;;5112450;28;20131;-86
2022/08/16 03:40:35;;;;;;;1999.90;999.90;;;19.70;1.00;;;;;;5094636;28;20160;-87
2022/08/16 03:43:08;;;;;;;1999.90;999.90;;;19.70;1.00;;;;;;5112613;28;20050;-84
2022/08/16 03:45:34;;;;;;;1999.90;999.90;;;19.70;1.00;;;;;;5094084;28;20043;-85
2022/08/16 03:48:01;;;;;;;1999.90;999.90;;;19.60;1.00;;;;;;5077825;28;20098;-86
2022/08/16 03:50:28;;;;;;;1999.90;999.90;;;19.50;1.00;;;;;;5112058;28;20486;-87
2022/08/16 03:52:54;;;;;;;1999.90;999.90;;;19.50;1.00;;;;;;5094488;28;20122;-86
2022/08/16 03:55:20;;;;;;;1999.90;999.90;;;19.40;1.00;;;;;;5093499;28;20092;-86
2022/08/16 03:57:48;;;;;;;1797.80;999.90;;;19.40;1.00;;;;;;5094006;28;20116;-86
2022/08/16 04:00:16;;;;;;;1999.90;999.90;;;19.40;1.00;;;;;;5112327;28;20051;-86
2022/08/16 04:02:42;;;;;;;1999.90;999.90;;;19.30;1.00;;;;;;5112241;28;20047;-86
2022/08/16 04:05:10;;;;;;;1999.90;999.90;;;19.30;1.00;;;;;;5111533;28;20559;-86
2022/08/16 04:07:36;;;;;;;1999.90;999.90;;;19.30;1.00;;;;;;5112273;28;20426;-86
2022/08/16 04:10:04;;;;;;;1999.90;999.90;;;19.30;1.00;;;;;;5094049;28;20066;-86
2022/08/16 04:12:30;;;;;;;1999.90;999.90;;;19.30;1.00;;;;;;5111081;28;20118;-86
2022/08/16 04:14:56;;;;;;;1999.90;999.90;;;19.20;1.00;;;;;;5111832;28;20039;-85
2022/08/16 04:17:22;;;;;;;1999.90;999.90;;;19.10;1.00;;;;;;5093922;28;20352;-87
2022/08/16 04:19:47;;;;;;;1999.90;999.90;;;19.00;1.00;;;;;;5112584;28;20479;-86
2022/08/16 04:22:13;;;;;;;1999.90;999.90;;;19.00;1.00;;;;;;5093309;28;20043;-86
2022/08/16 04:24:39;;;;;;;1999.90;997.28;;;18.90;1.00;;;;;;5114785;28;20051;-86
2022/08/16 04:27:05;;;;;;;1999.90;999.90;;;18.80;1.00;;;;;;5080916;28;20140;-86
2022/08/16 04:29:31;;;;;;;1999.90;999.90;;;18.80;1.00;;;;;;5115943;28;20100;-86
2022/08/16 04:31:57;;;;;;;1999.90;999.90;;;18.70;1.00;;;;;;5115949;28;20039;-86
2022/08/16 04:34:28;;;;;;;1997.00;999.90;;;18.70;1.00;;;;;;5098167;28;20044;-87
2022/08/16 04:36:56;;;;;;;1999.90;999.90;;;18.70;1.00;;;;;;5097709;28;20143;-85
2022/08/16 04:39:23;;;;;;;1999.90;999.90;;;18.80;1.00;;;;;;5115684;28;20043;-86
2022/08/16 04:41:48;;;;;;;1999.90;999.90;;;18.80;36.40;;;;;;5114565;28;20081;-85
2022/08/16 04:44:14;;;;;;;1999.90;999.90;;;18.80;34.70;;;;;;5097135;28;20072;-85
2022/08/16 04:46:40;;;;;;;1999.90;999.90;;;18.80;8.00;;;;;;5115592;28;20139;-87
2022/08/16 04:49:06;;;;;;;1999.22;999.90;;;18.80;9.60;;;;;;5115209;28;20046;-85
2022/08/16 04:51:33;;;;;;;1999.90;999.90;;;18.80;26.70;;;;;;5080641;28;20131;-88
2022/08/16 04:53:59;;;;;;;1999.90;999.90;;;18.80;13.80;;;;;;5115138;28;20047;-86
2022/08/16 04:56:24;;;;;;;1999.90;999.90;;;18.80;2.60;;;;;;5079779;28;20528;-85
2022/08/16 04:58:50;;;;;;;1999.90;999.90;;;18.80;7.50;;;;;;5114820;28;20091;-85
2022/08/16 05:01:16;;;;;;;1999.90;999.90;;;18.90;73.00;;;;;;5080180;28;20044;-85
2022/08/16 05:03:42;;;;;;;1999.90;999.90;;;18.90;29.40;;;;;;5114469;28;20058;-85
2022/08/16 05:06:09;;;;;;;1888.78;999.90;;;18.90;14.60;;;;;;5095731;28;20056;-84
2022/08/16 05:08:35;;;;;;;1999.90;999.90;;;18.90;4.30;;;;;;5096776;28;20131;-85
2022/08/16 05:11:03;;;;;;;1999.90;987.10;;;18.90;1.00;;;;;;5081715;28;20160;-85
2022/08/16 05:13:30;;;;;;;1999.90;997.25;;;18.90;25.00;;;;;;5114220;28;20104;-84
2022/08/16 05:15:56;;;;;;;1999.90;999.90;;;19.00;1.00;;;;;;5114708;28;20043;-85
2022/08/16 05:18:22;;;;;;;1999.90;999.90;;;19.00;1.00;;;;;;5114862;28;20119;-85
2022/08/16 05:20:47;;;;;;;1999.90;999.90;;;19.00;6.90;;;;;;5095931;28;20536;-85
2022/08/16 05:23:15;;;;;;;1999.90;922.10;;;19.00;1.00;;;;;;5114950;28;20122;-85
2022/08/16 05:25:42;;;;;;;1999.90;999.90;;;19.10;1.00;;;;;;5112662;28;20441;-84
2022/08/16 05:28:10;;;;;;;1999.90;804.22;;;19.10;1.00;;;;;;5095835;28;20043;-86
2022/08/16 05:30:37;;;;;;;1999.90;812.72;;;19.20;2.10;;;;;;5094956;28;20696;-86
2022/08/16 05:33:04;;;;;;;1999.90;918.63;;;19.10;1.00;;;;;;5079551;28;20036;-85
2022/08/16 05:35:30;;;;;;;1999.90;971.15;;;19.20;1.00;;;;;;5095176;28;20048;-85
2022/08/16 05:37:56;;;;;;;1999.90;999.90;;;19.20;1.00;;;;;;5079825;28;20054;-85
2022/08/16 05:40:21;;;;;;;1999.90;944.92;;;19.10;1.00;;;;;;5077089;28;20492;-85
2022/08/16 05:42:47;;;;;;;1999.90;999.90;;;19.20;1.00;;;;;;5112626;28;20039;-85
2022/08/16 05:45:13;;;;;;;1999.90;999.90;;;19.20;1.00;;;;;;5113939;28;20130;-84
2022/08/16 05:47:39;;;;;;;1999.90;999.90;;;19.30;1.00;;;;;;5062629;28;20273;-85
2022/08/16 05:50:06;;;;;;;1999.90;999.90;;;19.40;1.00;;;;;;5095813;28;20560;-84
2022/08/16 05:52:32;;;;;;;1999.90;980.93;;;19.50;1.00;;;;;;5112474;28;20496;-84
2022/08/16 05:54:57;;;;;;;1999.90;999.90;;;19.60;1.00;;;;;;5095403;28;20281;-84
2022/08/16 05:57:23;;;;;;;1999.90;817.35;;;19.70;1.00;;;;;;5112934;28;20163;-84
2022/08/16 05:59:49;;;;;;;1999.90;997.05;;;19.80;1.00;;;;;;5113792;28;20056;-83
2022/08/16 06:02:16;;;;;;;1999.90;575.28;;;19.90;1.00;;;;;;5113686;28;20048;-84
2022/08/16 06:04:42;;;;;;;1999.90;645.10;;;20.00;1.00;;;;;;5113508;28;20116;-84
2022/08/16 06:07:09;;;;;;;1999.90;623.60;;;20.00;1.00;;;;;;5114039;28;20135;-84
2022/08/16 06:09:36;;;;;;;1999.90;739.17;;;20.10;1.00;;;;;;5113353;28;20046;-84
2022/08/16 06:12:02;;;;;;;1999.90;597.97;;;20.10;1.00;;;;;;5112636;28;20090;-84
2022/08/16 06:14:29;;;;;;;1999.90;998.58;;;20.20;1.00;;;;;;5094851;28;20105;-84
2022/08/16 06:16:55;;;;;;;1999.90;649.80;;;20.30;99.90;;;;;;5112856;28;20054;-84
2022/08/16 06:19:20;;;;;;;1999.90;981.88;;;20.50;99.90;;;;;;5095090;28;20051;-85
2022/08/16 06:21:46;;;;;;;1999.90;720.83;;;20.70;99.90;;;;;;5076423;28;20097;-86
2022/08/16 06:24:13;;;;;;;1999.90;961.40;;;20.90;99.90;;;;;;5112043;28;20043;-84
2022/08/16 06:26:39;;;;;;;1999.90;717.72;;;21.00;99.90;;;;;;5111844;28;20182;-84
2022/08/16 06:29:05;;;;;;;1636.57;418.40;;;21.00;99.90;;;;;;5079019;28;20418;-84
2022/08/16 06:31:31;;;;;;;1999.90;999.90;;;21.00;99.90;;;;;;5095256;28;20107;-85
2022/08/16 06:33:57;;;;;;;1999.90;999.90;;;21.00;99.90;;;;;;5112495;28;20039;-85
2022/08/16 06:36:25;;;;;;;1999.90;689.70;;;21.00;99.90;;;;;;5112834;28;20044;-87
2022/08/16 06:38:51;;;;;;;1999.90;999.90;;;21.00;99.90;;;;;;5095529;28;20046;-84
2022/08/16 06:41:17;;;;;;;1959.90;693.15;;;21.10;99.90;;;;;;5094936;28;20051;-84
2022/08/16 06:43:42;;;;;;;1843.97;823.83;;;21.10;99.90;;;;;;5112701;28;20476;-84
2022/08/16 06:46:27;;;;;;;1999.90;999.90;;;21.10;99.90;;;;;;5112569;28;20051;-85
2022/08/16 06:48:53;;;;;;;1999.90;999.90;;;21.10;99.90;;;;;;5094993;28;20128;-85
2022/08/16 06:51:20;;;;;;;1999.90;999.90;;;21.20;99.90;;;;;;5094628;28;20701;-85
2022/08/16 06:53:46;;;;;;;1254.33;508.63;;;21.20;99.90;;;;;;5112646;28;20127;-85
2022/08/16 06:56:12;;;;;;;1999.90;999.90;;;21.30;99.90;;;;;;5094642;28;20126;-84
2022/08/16 06:58:38;;;;;;;1999.90;999.90;;;21.40;99.90;;;;;;5112671;28;20054;-84
2022/08/16 07:01:07;;;;;;;1999.90;999.90;;;21.50;99.90;;;;;;5078377;28;20059;-86
2022/08/16 07:03:33;;;;;;;1961.90;870.28;;;21.50;99.90;;;;;;5093789;28;20055;-85
2022/08/16 07:05:59;;;;;;;1999.90;999.90;;;21.60;99.90;;;;;;5112837;28;20054;-85
2022/08/16 07:08:26;;;;;;;1858.75;710.70;;;21.60;99.90;;;;;;5094341;28;20471;-88
2022/08/16 07:10:52;;;;;;;1999.90;999.90;;;21.70;99.90;;;;;;5111954;28;20043;-86
2022/08/16 07:13:20;;;;;;;1999.90;999.90;;;21.80;99.90;;;;;;5077812;28;20395;-86
2022/08/16 07:15:48;;;;;;;1999.90;999.90;;;21.90;99.90;;;;;;5112445;28;20472;-86
2022/08/16 07:18:14;;;;;;;1999.90;999.90;;;21.90;99.90;;;;;;5112742;28;20126;-86
2022/08/16 07:20:40;;;;;;;1999.90;999.90;;;21.90;99.90;;;;;;5094714;28;20054;-86
2022/08/16 07:23:08;;;;;;;1999.90;963.60;;;21.90;99.90;;;;;;5094876;28;20497;-86
2022/08/16 07:25:34;;;;;;;1855.47;999.90;;;22.10;99.90;;;;;;5077704;28;20051;-85
2022/08/16 07:28:01;;;;;;;1999.90;980.60;;;22.10;99.90;;;;;;5094013;28;20055;-86
2022/08/16 07:30:28;;;;;;;1505.13;999.90;;;22.40;99.90;;;;;;5094671;28;20047;-87
2022/08/16 07:32:55;;;;;;;1062.28;940.92;;;22.30;99.90;;;;;;5092963;28;20043;-87
2022/08/16 07:35:20;;;;;;;1021.05;913.20;;;24.60;99.90;;;;;;5093754;28;20039;-85
2022/08/16 07:37:47;;;;;;;1260.03;974.10;;;25.20;99.90;;;;;;5112075;28;20462;-85
2022/08/16 07:40:13;;;;;;;1070.32;939.70;;;25.90;99.90;;;;;;5112690;28;20112;-85
2022/08/16 07:42:39;;;;;;;1267.63;940.15;;;27.00;99.90;;;;;;5111739;28;20047;-85
2022/08/16 07:45:06;;;;;;;1291.50;972.17;;;27.70;52.70;;;;;;5061057;28;20057;-85
2022/08/16 07:47:31;;;;;;;1999.90;999.90;;;28.70;41.90;;;;;;5112081;28;20414;-84
2022/08/16 07:49:58;;;;;;;1999.90;999.90;;;28.20;2.00;;;;;;5112582;28;20040;-85
2022/08/16 07:52:24;;;;;;;1999.90;999.90;;;28.80;3.10;;;;;;5112602;28;20097;-86
2022/08/16 07:54:50;;;;;;;1999.90;999.90;;;28.20;1.00;;;;;;5111141;28;20656;-85
2022/08/16 07:57:15;;;;;;;1999.90;999.90;;;28.20;1.00;;;;;;5077772;28;20058;-86
2022/08/16 07:59:43;;;;;;;1999.90;999.90;;;28.70;1.00;;;;;;5096820;28;20130;-85
2022/08/16 08:02:10;;;;;;;1999.90;999.90;;;29.00;1.00;;;;;;5116728;28;20063;-87
2022/08/16 08:04:37;;;;;;;;;;;29.80;1.00;;;;;;5098612;28;20047;-86
2022/08/16 08:07:03;;;;;;;1999.90;999.90;;;30.10;1.00;;;;;;5098803;28;20021;-86
2022/08/16 08:09:28;;;;;;;1999.90;999.90;;;29.90;1.00;;;;;;5081840;28;20529;-85
2022/08/16 08:11:55;;;;;;;1999.90;999.90;;;30.20;1.00;;;;;;5117832;28;20218;-86
2022/08/16 08:14:20;;;;;;;1999.90;999.90;;;29.80;1.00;;;;;;5117254;28;20108;-86
2022/08/16 08:16:46;;;;;;;1999.90;999.90;;;30.00;1.00;;;;;;5099193;28;20480;-87
2022/08/16 08:19:12;;;;;;;1999.90;999.90;;;30.40;1.00;;;;;;5116264;28;20096;-86
2022/08/16 08:21:40;;;;;;;1999.90;999.90;;;30.40;1.00;;;;;;5081316;28;20464;-86
2022/08/16 08:24:08;;;;;;;1999.90;999.90;;;29.40;1.00;;;;;;5098239;28;20400;-86
2022/08/16 08:26:35;;;;;;;1999.90;999.90;;;29.90;1.00;;;;;;5115588;28;20104;-86
2022/08/16 08:29:01;;;;;;;1999.90;999.90;;;29.60;1.00;;;;;;5097994;28;20079;-86
2022/08/16 08:31:27;;;;;;;1999.90;999.90;;;30.30;1.00;;;;;;5098132;28;20446;-86
2022/08/16 08:33:55;;;;;;;1999.90;999.90;;;31.20;1.00;;;;;;5115537;28;20094;-85
2022/08/16 08:36:27;;;;;;;1999.90;999.90;;;31.70;1.00;;;;;;5081055;28;20471;-86
2022/08/16 08:38:53;;;;;;;1999.90;999.90;;;31.30;1.00;;;;;;5115453;28;20035;-86
2022/08/16 08:41:18;;;;;;;1999.90;999.90;;;31.90;1.00;;;;;;5097093;28;20070;-85
2022/08/16 08:43:45;;;;;;;1999.90;999.90;;;31.40;1.00;;;;;;5115731;28;20499;-86
2022/08/16 08:46:11;;;;;;;1999.90;999.90;;;30.70;1.00;;;;;;5115602;28;20048;-86
2022/08/16 08:48:37;;;;;;;1999.90;999.90;;;31.30;1.00;;;;;;5115677;28;20055;-85
2022/08/16 08:51:06;;;;;;;1999.90;999.90;;;31.30;1.00;;;;;;5115259;28;20383;-86
2022/08/16 08:53:32;;;;;;;1999.90;999.90;;;31.20;1.00;;;;;;5097514;28;20480;-86
2022/08/16 08:55:58;;;;;;;1999.90;999.90;;;32.90;1.00;;;;;;5114962;28;20594;-87
2022/08/16 08:58:24;;;;;;;1999.90;999.90;;;33.00;1.00;;;;;;5080074;28;20043;-87
2022/08/16 09:00:50;;;;;;;1999.90;999.90;;;33.50;1.00;;;;;;5096457;28;20434;-86
2022/08/16 09:03:16;;;;;;;1999.90;999.90;;;34.40;1.00;;;;;;5115018;28;20044;-86
2022/08/16 09:05:42;;;;;;;1999.90;999.90;;;33.80;1.00;;;;;;5114638;28;20075;-86
2022/08/16 09:08:10;;;;;;;1999.90;999.90;;;33.20;1.00;;;;;;5080516;28;20054;-86
2022/08/16 09:10:36;;;;;;;1999.90;999.90;;;32.40;1.00;;;;;;5113423;28;20279;-86
2022/08/16 09:13:04;;;;;;;1999.90;999.90;;;31.50;1.00;;;;;;5114614;28;20050;-84
2022/08/16 09:15:29;;;;;;;1999.90;999.90;;;30.80;1.00;;;;;;5097206;28;20059;-85
2022/08/16 09:17:55;;;;;;;1999.90;999.90;;;31.30;1.00;;;;;;5114295;28;20164;-85
2022/08/16 09:20:24;;;;;;;1999.90;999.90;;;31.00;1.00;;;;;;5115184;28;20041;-86
2022/08/16 09:22:50;;;;;;;1999.90;999.90;;;30.80;1.00;;;;;;5115166;28;20113;-85
2022/08/16 09:25:16;;;;;;;1999.90;999.90;;;31.50;1.00;;;;;;5097104;28;20472;-85
2022/08/16 09:27:42;;;;;;;1999.90;999.90;;;31.40;1.00;;;;;;5096173;28;20058;-84
2022/08/16 09:30:10;;;;;;;1999.90;999.90;;;31.80;1.00;;;;;;5096857;28;20051;-85
2022/08/16 09:32:36;;;;;;;1999.90;999.90;;;32.40;1.00;;;;;;5063165;28;20059;-85
2022/08/16 09:35:03;;;;;;;1999.90;999.90;;;33.20;1.00;;;;;;5096805;28;20214;-85
2022/08/16 09:37:30;;;;;;;;;;;33.00;1.00;;;;;;5115256;28;20460;-85
2022/08/16 09:39:57;;;;;;;1999.90;999.90;;;33.20;99.90;;;;;;5114562;28;19927;-86
2022/08/16 09:42:22;;;;;;;;;;;33.70;1.00;;;;;;5080035;28;20043;-86
2022/08/16 09:44:48;;;;;;;1999.90;999.90;;;33.60;99.90;;;;;;5114642;28;19924;-86
2022/08/16 09:47:14;;;;;;;1999.90;999.90;;;34.40;99.90;;;;;;5114251;28;20472;-85
2022/08/16 09:49:40;;;;;;;1999.90;999.90;;;35.50;1.00;;;;;;5096496;28;20039;-85
2022/08/16 09:52:05;;;;;;;1999.90;999.90;;;35.60;99.90;;;;;;5113953;28;20039;-86
2022/08/16 09:54:31;;;;;;;1999.90;999.90;;;36.10;99.90;;;;;;5096233;28;20164;-85
2022/08/16 09:56:57;;;;;;;1999.90;999.90;;;35.70;99.90;;;;;;5095801;28;20083;-85
2022/08/16 09:59:24;;;;;;;1999.90;999.90;;;35.60;99.90;;;;;;5114201;28;20058;-85
2022/08/16 10:01:51;;;;;;;1999.90;999.90;;;34.30;99.90;;;;;;5096020;28;20134;-84
2022/08/16 10:04:18;;;;;;;1999.90;999.90;;;33.40;99.90;;;;;;5096156;28;20055;-85
2022/08/16 10:06:46;;;;;;;;;;;33.20;99.90;;;;;;5097028;28;20055;-87
2022/08/16 10:09:13;;;;;;;1999.90;999.90;;;33.00;99.90;;;;;;5114221;28;19943;-85
2022/08/16 10:14:29;;;;;;;1999.90;999.90;;;34.90;99.90;;;;;;5097698;28;20091;-85
2022/08/16 10:17:00;;;;;;;1999.90;999.90;;;35.80;99.90;;;;;;5115051;28;20043;-86
2022/08/16 10:19:27;;;;;;;1999.90;999.90;;;35.10;99.90;;;;;;5114377;28;20047;-85
2022/08/16 10:21:56;;;;;;;;;;;34.70;99.90;;;;;;5113658;28;20051;-85
2022/08/16 10:24:22;;;;;;;1999.90;999.90;;;34.80;99.90;;;;;;5113914;28;19965;-86
2022/08/16 10:26:48;;;;;;;1999.90;999.90;;;35.50;99.90;;;;;;5113483;28;20039;-85
2022/08/16 10:29:16;;;;;;;1999.90;999.90;;;35.20;99.90;;;;;;5113500;28;20039;-86
2022/08/16 10:31:42;;;;;;;1999.90;999.90;;;35.10;99.90;;;;;;5113827;28;20044;-86
2022/08/16 10:34:08;;;;;;;1999.90;999.90;;;34.30;99.90;;;;;;5112912;28;20498;-85
2022/08/16 10:36:34;;;;;;;1999.90;999.90;;;34.40;99.90;;;;;;5095191;28;20043;-86
2022/08/16 10:39:00;;;;;;;1999.90;999.90;;;35.10;99.90;;;;;;5113381;28;20131;-85
2022/08/16 10:41:26;;;;;;;1999.90;999.90;;;35.00;99.90;;;;;;5113477;28;20047;-86
2022/08/16 10:43:52;;;;;;;1999.90;999.90;;;35.00;99.90;;;;;;5095514;28;20040;-85
2022/08/16 10:46:18;;;;;;;1999.90;999.90;;;35.30;99.90;;;;;;5113439;28;20040;-86
2022/08/16 10:48:45;;;;;;;1999.90;999.90;;;34.90;99.90;;;;;;5113368;28;20040;-86
2022/08/16 10:51:11;;;;;;;1999.90;999.90;;;33.70;99.90;;;;;;5095010;28;20131;-86
2022/08/16 10:53:38;;;;;;;1999.90;999.90;;;35.00;99.90;;;;;;5095562;28;20131;-86
2022/08/16 10:56:07;;;;;;;1999.90;999.90;;;35.00;99.90;;;;;;5094544;28;20039;-86
2022/08/16 10:58:34;;;;;;;1999.90;999.90;;;36.20;99.90;;;;;;5094769;28;20056;-86
2022/08/16 11:01:04;;;;;;;1999.90;999.90;;;35.30;99.90;;;;;;5094683;28;20090;-85
2022/08/16 11:03:30;;;;;;;1999.90;999.90;;;35.40;99.90;;;;;;5113400;28;20050;-86
2022/08/16 11:05:56;;;;;;;1999.90;999.90;;;34.70;99.90;;;;;;5094762;28;20128;-86
2022/08/16 11:08:22;;;;;;;1999.90;999.90;;;35.30;99.90;;;;;;5095072;28;20044;-85
2022/08/16 11:10:48;;;;;;;1999.90;999.90;;;34.10;99.90;;;;;;5077763;28;20048;-86
2022/08/16 11:13:17;;;;;;;1999.90;999.90;;;35.30;99.90;;;;;;5077789;28;20042;-85
2022/08/16 11:15:43;;;;;;;1999.90;999.90;;;34.70;99.90;;;;;;5113175;28;20437;-86
2022/08/16 11:18:10;;;;;;;1999.90;999.90;;;35.60;99.90;;;;;;5112985;28;20104;-85
2022/08/16 11:20:37;;;;;;;1999.90;999.90;;;35.90;99.90;;;;;;5112798;28;20055;-86
2022/08/16 11:23:03;;;;;;;1999.90;999.90;;;37.10;99.90;;;;;;5094891;28;20052;-86
2022/08/16 11:25:31;;;;;;;1999.90;999.90;;;37.80;99.90;;;;;;5112987;28;20048;-85
2022/08/16 11:27:59;;;;;;;1999.90;999.90;;;37.10;99.90;;;;;;5112503;28;20157;-84
2022/08/16 11:30:26;;;;;;;1999.90;999.90;;;37.60;99.90;;;;;;5094370;28;20051;-86
2022/08/16 11:32:55;;;;;;;1999.90;999.90;;;37.30;99.90;;;;;;5112365;28;20043;-86
2022/08/16 11:35:26;;;;;;;1999.90;999.90;;;37.80;99.90;;;;;;5094593;28;20048;-86
2022/08/16 11:38:03;;;;;;;1999.90;999.90;;;38.20;99.90;;;;;;5094642;28;20368;-84
2022/08/16 11:40:31;;;;;;;1999.90;999.90;;;38.50;99.90;;;;;;5094738;28;20164;-85
2022/08/16 11:42:57;;;;;;;1999.90;999.90;;;38.10;99.90;;;;;;5094238;28;20054;-85
2022/08/16 11:45:23;;;;;;;1999.90;999.90;;;39.20;99.90;;;;;;5094985;28;20040;-86
2022/08/16 11:47:49;;;;;;;1999.90;999.90;;;39.60;99.90;;;;;;5077548;28;20048;-86
2022/08/16 11:50:16;;;;;;;1999.90;999.90;;;39.80;99.90;;;;;;5093766;28;20105;-85
2022/08/16 11:52:42;;;;;;;1999.90;999.90;;;40.30;99.90;;;;;;5077284;28;20048;-86
2022/08/16 11:55:10;;;;;;;1999.90;999.90;;;38.10;99.90;;;;;;5093883;28;20171;-85
2022/08/16 11:57:40;;;;;;;1999.90;999.90;;;37.40;99.90;;;;;;5111973;28;20281;-86
2022/08/16 12:00:11;;;;;;;1999.90;999.90;;;37.00;99.90;;;;;;5111924;28;20391;-85
2022/08/16 12:02:37;;;;;;;1296.22;834.17;;;37.90;99.90;;;;;;5094476;28;20036;-86
2022/08/16 12:05:06;;;;;;;1999.90;999.90;;;38.80;99.90;;;;;;5075941;28;20079;-84